Time;durP1;ratioP1;P1;durP2;ratioP2;P2;SDS_P1;SDS_P2;PMS_P1;PMS_P2;Temp;Humidity;BMP_temperature;BMP_pressure;BME280_temperature;BME280_humidity;BME280_pressure;Samples;Min_cycle;Max_cycle;Signal;HPM_P1;HPM_P2
2021/01/10 00:01:12;;;;;;;;;;;;;;;20.05;39.64;101224.06;5037384;28;849;-59
2021/01/10 00:03:38;;;;;;;;;;;;;;;19.97;39.77;101222.72;5036762;28;771;-58
2021/01/10 00:06:03;;;;;;;;;;;;;;;19.72;40.43;101226.44;5037564;28;768;-59
2021/01/10 00:08:28;;;;;;;;;;;;;;;19.19;41.52;101223.34;5055514;28;1003;-59
2021/01/10 00:10:54;;;;;;;;;;;;;;;20.04;40.10;101219.66;5056774;28;772;-57
2021/01/10 00:13:19;;;;;;;;;;;;;;;20.74;38.45;101210.28;5039456;28;600;-59
2021/01/10 00:15:46;;;;;;;;;;;;;;;20.24;39.39;101215.91;5057157;28;1985;-58
2021/01/10 00:18:11;;;;;;;;;;;;;;;20.09;39.56;101222.38;5057113;28;1096;-60
2021/01/10 00:20:38;;;;;;;;;;;;;;;19.75;40.36;101222.28;5056505;28;756;-56
2021/01/10 00:23:03;;;;;;;;;;;;;;;19.39;41.54;101239.84;5040789;28;1120;-58
2021/01/10 00:25:29;;;;;;;;;;;;;;;20.40;39.18;101247.00;5036909;28;795;-59
2021/01/10 00:27:54;;;;;;;;;;;;;;;20.49;38.84;101253.56;5036603;28;867;-58
2021/01/10 00:30:20;;;;;;;;;;;;;;;20.14;39.78;101262.94;5036516;28;863;-60
2021/01/10 00:32:46;;;;;;;;;;;;;;;19.89;40.23;101269.44;5036894;28;740;-59
2021/01/10 00:35:12;;;;;;;;;;;;;;;19.47;40.99;101275.09;5036731;28;819;-57
2021/01/10 00:37:37;;;;;;;;;;;;;;;19.08;42.22;101278.50;5036250;28;1981;-59
2021/01/10 00:40:03;;;;;;;;;;;;;;;20.01;39.89;101269.91;5036704;28;855;-57
2021/01/10 00:42:28;;;;;;;;;;;;;;;20.73;38.50;101266.66;5036367;28;827;-60
2021/01/10 00:44:54;;;;;;;;;;;;;;;20.09;39.95;101266.56;5036452;28;804;-58
2021/01/10 00:47:22;;;;;;;;;;;;;;;20.05;39.77;101268.25;5018891;28;933;-59
2021/01/10 00:49:48;;;;;;;;;;;;;;;19.38;41.39;101271.25;5035245;28;1178;-59
2021/01/10 00:52:14;;;;;;;;;;;;;;;19.15;41.90;101276.28;5018484;28;1163;-57
2021/01/10 00:54:42;;;;;;;;;;;;;;;20.33;39.46;101274.94;5036585;28;764;-60
2021/01/10 00:57:09;;;;;;;;;;;;;;;20.65;38.54;101278.28;5018509;28;1926;-57
2021/01/10 00:59:34;;;;;;;;;;;;;;;20.11;39.53;101280.06;5036409;28;740;-58
2021/01/10 01:02:02;;;;;;;;;;;;;;;19.89;40.06;101288.75;5042467;28;768;-59
2021/01/10 01:04:28;;;;;;;;;;;;;;;19.17;41.76;101283.44;5025292;28;1123;-57
2021/01/10 01:06:54;;;;;;;;;;;;;;;19.74;40.52;101290.44;5030765;28;1206;-58
2021/01/10 01:09:20;;;;;;;;;;;;;;;20.67;38.75;101287.13;5062935;28;752;-57
2021/01/10 01:11:45;;;;;;;;;;;;;;;20.33;39.21;101283.25;5062978;28;819;-59
2021/01/10 01:14:11;;;;;;;;;;;;;;;20.14;39.63;101285.84;5062766;28;785;-58
2021/01/10 01:16:38;;;;;;;;;;;;;;;19.46;41.10;101290.00;5063092;28;1922;-59
2021/01/10 01:19:03;;;;;;;;;;;;;;;19.00;42.08;101290.09;5062365;28;767;-59
2021/01/10 01:21:29;;;;;;;;;;;;;;;19.53;41.29;101283.34;5059871;28;994;-59
2021/01/10 01:23:54;;;;;;;;;;;;;;;20.56;38.77;101260.69;5025043;28;1164;-58
2021/01/10 01:26:20;;;;;;;;;;;;;;;20.40;38.80;101263.59;5042464;28;752;-59
2021/01/10 01:28:46;;;;;;;;;;;;;;;20.08;39.65;101244.75;5042692;28;871;-59
2021/01/10 01:31:12;;;;;;;;;;;;;;;19.69;40.53;101249.06;5042825;28;914;-60
2021/01/10 01:33:38;;;;;;;;;;;;;;;19.31;41.40;101240.41;5042456;28;764;-59
2021/01/10 01:36:04;;;;;;;;;;;;;;;20.29;39.30;101231.63;5042629;28;2263;-58
2021/01/10 01:38:29;;;;;;;;;;;;;;;20.76;38.37;101226.56;5042694;28;964;-59
2021/01/10 01:40:58;;;;;;;;;;;;;;;20.11;39.42;101245.00;5042383;28;792;-58
2021/01/10 01:43:24;;;;;;;;;;;;;;;19.94;40.03;101228.00;5042546;28;883;-58
2021/01/10 01:45:49;;;;;;;;;;;;;;;19.33;41.27;101227.16;5042768;28;848;-59
2021/01/10 01:48:14;;;;;;;;;;;;;;;19.13;41.91;101242.66;5042110;28;808;-58
2021/01/10 01:50:40;;;;;;;;;;;;;;;20.31;39.18;101244.06;5042542;28;761;-59
2021/01/10 01:53:05;;;;;;;;;;;;;;;21.03;37.63;101261.97;5042520;28;1018;-59
2021/01/10 01:55:31;;;;;;;;;;;;;;;21.32;36.94;101244.47;5042196;28;876;-60
2021/01/10 01:57:57;;;;;;;;;;;;;;;20.55;38.65;101248.00;5043031;28;1969;-59
2021/01/10 02:00:23;;;;;;;;;;;;;;;20.24;39.22;101248.22;5042580;28;767;-58
2021/01/10 02:02:48;;;;;;;;;;;;;;;19.61;40.62;101241.38;5041982;28;744;-59
2021/01/10 02:05:15;;;;;;;;;;;;;;;19.05;42.19;101254.25;5024887;28;843;-58
2021/01/10 02:07:51;;;;;;;;;;;;;;;20.24;39.44;101259.28;5024624;28;983;-58
2021/01/10 02:10:17;;;;;;;;;;;;;;;20.67;38.32;101253.97;5024799;28;760;-58
2021/01/10 02:12:48;;;;;;;;;;;;;;;20.16;39.59;101266.22;5022286;28;819;-59
2021/01/10 02:15:14;;;;;;;;;;;;;;;19.92;39.91;101272.47;5021727;28;784;-59
2021/01/10 02:17:44;;;;;;;;;;;;;;;19.44;41.15;101252.75;5050160;28;1906;-58
2021/01/10 02:20:15;;;;;;;;;;;;;;;19.32;41.47;101269.59;5041342;28;788;-60
2021/01/10 02:22:46;;;;;;;;;;;;;;;20.40;39.01;101263.59;5046264;28;1182;-58
2021/01/10 02:25:12;;;;;;;;;;;;;;;20.33;39.01;101272.19;5038754;28;755;-59
2021/01/10 02:27:37;;;;;;;;;;;;;;;20.13;39.38;101259.34;5039249;28;779;-59
2021/01/10 02:30:03;;;;;;;;;;;;;;;19.58;40.76;101250.22;5038709;28;899;-58
2021/01/10 02:32:29;;;;;;;;;;;;;;;19.15;41.53;101248.72;5039080;28;812;-59
2021/01/10 02:34:54;;;;;;;;;;;;;;;19.65;40.91;101250.75;5021623;28;752;-58
2021/01/10 02:37:32;;;;;;;;;;;;;;;20.59;38.46;101249.88;5038526;28;1910;-57
2021/01/10 02:40:00;;;;;;;;;;;;;;;20.16;39.20;101263.47;5038511;28;844;-58
2021/01/10 02:42:31;;;;;;;;;;;;;;;20.11;39.62;101274.56;5021248;28;764;-59
2021/01/10 02:45:00;;;;;;;;;;;;;;;19.51;40.64;101269.84;5020950;28;876;-58
2021/01/10 02:47:26;;;;;;;;;;;;;;;18.92;42.06;101280.44;5038444;28;864;-58
2021/01/10 02:49:51;;;;;;;;;;;;;;;19.99;39.78;101274.88;5038610;28;901;-58
2021/01/10 02:52:17;;;;;;;;;;;;;;;20.72;38.14;101278.00;5046861;28;959;-58
2021/01/10 02:54:42;;;;;;;;;;;;;;;20.05;39.49;101278.44;5058206;28;804;-59
2021/01/10 02:57:18;;;;;;;;;;;;;;;19.92;39.64;101290.94;5058442;28;1918;-58
2021/01/10 02:59:44;;;;;;;;;;;;;;;19.37;40.96;101293.59;5058291;28;779;-57
2021/01/10 03:02:10;;;;;;;;;;;;;;;19.35;41.37;101293.03;5040429;28;848;-58
2021/01/10 03:04:36;;;;;;;;;;;;;;;20.35;38.81;101300.34;5040737;28;872;-56
2021/01/10 03:07:01;;;;;;;;;;;;;;;20.46;38.67;101289.22;5039999;28;991;-59
2021/01/10 03:09:27;;;;;;;;;;;;;;;20.14;39.23;101290.53;5058075;28;804;-57
2021/01/10 03:11:53;;;;;;;;;;;;;;;19.72;40.02;101291.84;5058176;28;736;-57
2021/01/10 03:14:18;;;;;;;;;;;;;;;19.25;41.35;101291.13;5040458;28;931;-58
2021/01/10 03:16:44;;;;;;;;;;;;;;;19.09;41.64;101299.44;5057717;28;1914;-54
2021/01/10 03:19:09;;;;;;;;;;;;;;;20.09;39.39;101296.94;5040081;28;764;-59
2021/01/10 03:21:35;;;;;;;;;;;;;;;20.65;38.19;101297.63;5054729;28;959;-58
2021/01/10 03:24:00;;;;;;;;;;;;;;;20.04;39.62;101294.19;5037429;28;1064;-59
2021/01/10 03:26:27;;;;;;;;;;;;;;;19.80;40.06;101289.34;5037826;28;840;-60
2021/01/10 03:28:52;;;;;;;;;;;;;;;19.12;41.32;101307.16;5038290;28;752;-59
2021/01/10 03:31:17;;;;;;;;;;;;;;;19.62;40.55;101293.50;5037649;28;796;-60
2021/01/10 03:33:46;;;;;;;;;;;;;;;20.57;38.57;101298.28;5037763;28;788;-60
2021/01/10 03:36:14;;;;;;;;;;;;;;;20.14;39.08;101293.31;5037807;28;1914;-55
2021/01/10 03:38:40;;;;;;;;;;;;;;;19.99;39.61;101299.72;5035973;28;1099;-59
2021/01/10 03:41:06;;;;;;;;;;;;;;;19.79;40.02;101309.75;5037692;28;867;-60
2021/01/10 03:43:31;;;;;;;;;;;;;;;19.07;41.72;101303.56;5037698;28;822;-57
2021/01/10 03:45:57;;;;;;;;;;;;;;;20.18;39.27;101295.19;5037206;28;864;-60
2021/01/10 03:48:22;;;;;;;;;;;;;;;20.61;38.38;101293.81;5037453;28;816;-55
2021/01/10 03:50:48;;;;;;;;;;;;;;;20.18;39.16;101295.19;5037893;28;815;-59
2021/01/10 03:53:13;;;;;;;;;;;;;;;20.04;39.37;101294.19;5036648;28;999;-60
2021/01/10 03:55:38;;;;;;;;;;;;;;;19.32;40.95;101289.75;5037377;28;756;-56
2021/01/10 03:58:04;;;;;;;;;;;;;;;19.37;41.19;101280.63;5037315;28;1985;-58
2021/01/10 04:00:29;;;;;;;;;;;;;;;20.42;38.72;101294.50;5036881;28;776;-58
2021/01/10 04:02:55;;;;;;;;;;;;;;;20.47;38.49;101300.00;5037217;28;772;-58
2021/01/10 04:05:20;;;;;;;;;;;;;;;20.15;39.20;101293.00;5037341;28;751;-59
2021/01/10 04:07:45;;;;;;;;;;;;;;;19.67;40.07;101298.22;5036552;28;931;-59
2021/01/10 04:10:11;;;;;;;;;;;;;;;18.92;42.06;101305.25;5037019;28;748;-58
2021/01/10 04:12:36;;;;;;;;;;;;;;;19.87;39.92;101299.25;5037281;28;800;-57
2021/01/10 04:15:02;;;;;;;;;;;;;;;20.73;38.16;101297.03;5037007;28;859;-60
2021/01/10 04:17:29;;;;;;;;;;;;;;;20.34;38.72;101303.38;5046141;28;1983;-58
2021/01/10 04:19:54;;;;;;;;;;;;;;;20.13;39.24;101310.97;5056864;28;772;-56
2021/01/10 04:22:20;;;;;;;;;;;;;;;19.67;40.36;101317.53;5046568;28;1024;-60
2021/01/10 04:24:46;;;;;;;;;;;;;;;18.93;42.00;101325.38;5019052;28;792;-59
2021/01/10 04:27:11;;;;;;;;;;;;;;;20.04;39.55;101321.78;5036973;28;787;-57
2021/01/10 04:29:37;;;;;;;;;;;;;;;20.80;38.07;101333.50;5036741;28;756;-58
2021/01/10 04:32:02;;;;;;;;;;;;;;;20.21;39.22;101332.47;5036423;28;752;-59
2021/01/10 04:34:28;;;;;;;;;;;;;;;20.21;39.32;101340.75;5036817;28;800;-57
2021/01/10 04:36:53;;;;;;;;;;;;;;;19.69;40.39;101350.34;5035737;28;1984;-55
2021/01/10 04:39:18;;;;;;;;;;;;;;;19.26;41.09;101345.19;5036207;28;740;-58
2021/01/10 04:41:44;;;;;;;;;;;;;;;19.94;39.79;101349.44;5036808;28;737;-58
2021/01/10 04:44:09;;;;;;;;;;;;;;;20.80;37.77;101352.00;5018960;28;788;-58
2021/01/10 04:46:35;;;;;;;;;;;;;;;20.11;39.33;101355.44;5036275;28;871;-58
2021/01/10 04:49:00;;;;;;;;;;;;;;;19.99;39.60;101349.41;5036921;28;836;-58
2021/01/10 04:51:26;;;;;;;;;;;;;;;19.39;40.84;101352.91;5024394;28;833;-61
2021/01/10 04:53:53;;;;;;;;;;;;;;;19.03;41.97;101357.59;5038346;28;884;-60
2021/01/10 04:56:19;;;;;;;;;;;;;;;20.13;39.29;101367.03;5005439;28;1910;-59
2021/01/10 04:58:50;;;;;;;;;;;;;;;20.67;37.95;101373.63;5056357;28;760;-54
2021/01/10 05:01:18;;;;;;;;;;;;;;;20.08;39.47;101367.06;5055862;28;843;-59
2021/01/10 05:03:43;;;;;;;;;;;;;;;19.98;39.54;101372.63;5055393;28;924;-53
2021/01/10 05:06:09;;;;;;;;;;;;;;;19.37;40.75;101368.88;5054976;28;1098;-56
2021/01/10 05:08:35;;;;;;;;;;;;;;;19.71;40.11;101362.72;5035745;28;1040;-56
2021/01/10 05:11:00;;;;;;;;;;;;;;;20.57;38.23;101353.53;5035905;28;915;-60
2021/01/10 05:13:26;;;;;;;;;;;;;;;20.25;38.92;101350.13;5036011;28;828;-58
2021/01/10 05:15:55;;;;;;;;;;;;;;;20.17;38.93;101348.78;5035702;28;1918;-60
2021/01/10 05:18:20;;;;;;;;;;;;;;;19.48;40.45;101348.44;5034663;28;1164;-59
2021/01/10 05:20:46;;;;;;;;;;;;;;;19.09;41.71;101343.53;5055677;28;840;-59
2021/01/10 05:23:13;;;;;;;;;;;;;;;20.26;39.10;101342.66;5038326;28;1006;-59
2021/01/10 05:25:38;;;;;;;;;;;;;;;20.66;37.95;101349.03;5035825;28;819;-59
2021/01/10 05:28:04;;;;;;;;;;;;;;;20.22;38.87;101341.59;5035838;28;823;-52
2021/01/10 05:30:29;;;;;;;;;;;;;;;20.04;39.18;101365.97;5035686;28;846;-59
2021/01/10 05:33:01;;;;;;;;;;;;;;;19.22;41.17;101366.97;5035802;28;812;-58
2021/01/10 05:35:27;;;;;;;;;;;;;;;19.80;40.16;101360.28;5035849;28;748;-59
2021/01/10 05:37:56;;;;;;;;;;;;;;;20.55;38.38;101358.50;5017273;28;1967;-59
2021/01/10 05:40:26;;;;;;;;;;;;;;;20.27;38.77;101363.63;5036282;28;747;-56
2021/01/10 05:42:51;;;;;;;;;;;;;;;20.16;38.95;101358.19;5018137;28;1137;-59
2021/01/10 05:45:17;;;;;;;;;;;;;;;19.67;39.90;101356.97;5035204;28;823;-59
2021/01/10 05:47:43;;;;;;;;;;;;;;;19.93;39.81;101342.28;5018933;28;1485;-59
2021/01/10 05:50:15;;;;;;;;;;;;;;;20.80;37.87;101325.19;5039728;28;835;-60
2021/01/10 05:52:40;;;;;;;;;;;;;;;20.29;38.67;101329.09;5038676;28;971;-59
2021/01/10 05:55:08;;;;;;;;;;;;;;;19.99;39.28;101319.03;5039420;28;764;-60
2021/01/10 05:57:33;;;;;;;;;;;;;;;19.49;40.44;101317.00;5039262;28;1914;-60
2021/01/10 06:00:00;;;;;;;;;;;;;;;19.50;40.73;101339.88;5021123;28;824;-60
2021/01/10 06:02:29;;;;;;;;;;;;;;;20.51;38.58;101339.75;5039283;28;795;-60
2021/01/10 06:05:21;;;;;;;;;;;;;;;20.46;38.31;101350.81;5039122;28;779;-59
2021/01/10 06:07:46;;;;;;;;;;;;;;;20.13;39.28;101355.16;5035317;28;1427;-60
2021/01/10 06:10:12;;;;;;;;;;;;;;;19.65;40.15;101372.94;5039127;28;803;-60
2021/01/10 06:12:39;;;;;;;;;;;;;;;19.30;41.06;101366.41;5039363;28;734;-59
2021/01/10 06:15:08;;;;;;;;;;;;;;;20.20;39.31;101382.47;5038724;28;788;-58
2021/01/10 06:17:35;;;;;;;;;;;;;;;20.91;37.57;101383.97;5049191;28;1959;-60
2021/01/10 06:20:01;;;;;;;;;;;;;;;20.16;39.15;101371.13;5040901;28;974;-59
2021/01/10 06:22:27;;;;;;;;;;;;;;;19.95;39.34;101373.16;5040196;28;1124;-60
2021/01/10 06:24:52;;;;;;;;;;;;;;;19.32;41.04;101375.25;5040890;28;841;-62
2021/01/10 06:27:20;;;;;;;;;;;;;;;19.80;39.97;101391.44;5040854;28;755;-59
2021/01/10 06:29:45;;;;;;;;;;;;;;;20.63;38.37;101380.00;5058408;28;764;-60
2021/01/10 06:32:11;;;;;;;;;;;;;;;20.35;38.66;101410.00;5040761;28;780;-60
2021/01/10 06:34:40;;;;;;;;;;;;;;;20.18;39.12;101413.94;5058517;28;748;-60
2021/01/10 06:37:09;;;;;;;;;;;;;;;19.72;40.19;101403.00;5050577;28;1978;-60
2021/01/10 06:39:38;;;;;;;;;;;;;;;18.96;41.62;101407.50;5038822;28;773;-58
2021/01/10 06:42:07;;;;;;;;;;;;;;;20.09;39.36;101409.28;5038422;28;820;-60
2021/01/10 06:44:33;;;;;;;;;;;;;;;20.84;37.59;101409.16;5038150;28;740;-51
2021/01/10 06:46:58;;;;;;;;;;;;;;;20.24;38.78;101423.03;5038224;28;820;-59
2021/01/10 06:49:23;;;;;;;;;;;;;;;20.16;39.15;101416.16;5038365;28;756;-60
2021/01/10 06:51:50;;;;;;;;;;;;;;;19.53;40.50;101429.53;5037552;28;1096;-59
2021/01/10 06:54:15;;;;;;;;;;;;;;;19.66;40.36;101431.75;5020415;28;529;-58
2021/01/10 06:56:47;;;;;;;;;;;;;;;20.63;38.20;101433.31;5038216;28;1917;-60
2021/01/10 06:59:14;;;;;;;;;;;;;;;20.11;39.06;101420.88;5019737;28;899;-59
2021/01/10 07:01:58;;;;;;;;;;;;;;;19.95;39.56;101436.66;5038311;28;760;-60
2021/01/10 07:04:32;;;;;;;;;;;;;;;19.56;40.69;101437.25;5038122;28;828;-60
2021/01/10 07:06:58;;;;;;;;;;;;;;;19.11;41.75;101448.84;5037526;28;990;-60
2021/01/10 07:09:23;;;;;;;;;;;;;;;20.16;39.25;101441.00;5037721;28;820;-60
2021/01/10 07:11:49;;;;;;;;;;;;;;;20.55;38.29;101441.38;5038021;28;823;-59
2021/01/10 07:14:17;;;;;;;;;;;;;;;20.12;39.28;101434.41;5037862;28;815;-59
2021/01/10 07:16:44;;;;;;;;;;;;;;;20.09;39.29;101426.69;5040933;28;1983;-59
2021/01/10 07:19:11;;;;;;;;;;;;;;;19.19;41.40;101439.19;5057681;28;835;-59
2021/01/10 07:21:38;;;;;;;;;;;;;;;19.22;41.47;101446.09;5053672;28;1022;-60
2021/01/10 07:24:12;;;;;;;;;;;;;;;20.30;39.00;101451.44;5037587;28;1026;-59
2021/01/10 07:26:56;;;;;;;;;;;;;;;20.46;38.45;101460.50;5037940;28;768;-61
2021/01/10 07:29:34;;;;;;;;;;;;;;;20.04;39.31;101459.81;5036997;28;772;-61
2021/01/10 07:32:16;;;;;;;;;;;;;;;19.65;40.05;101441.09;5039417;28;1178;-63
2021/01/10 07:34:45;;;;;;;;;;;;;;;19.15;41.71;101438.94;5030619;28;1275;-60
2021/01/10 07:37:30;;;;;;;;;;;;;;;20.21;39.10;101431.06;5026439;28;1914;-60
2021/01/10 07:40:07;;;;;;;;;;;;;;;20.66;37.95;101426.41;5045870;28;1359;-63
2021/01/10 07:42:33;;;;;;;;;;;;;;;20.21;38.88;101431.06;5037017;28;1312;-64
2021/01/10 07:45:20;;;;;;;;;;;;;;;19.83;39.65;101418.47;5012350;28;1207;-60
2021/01/10 07:47:51;;;;;;;;;;;;;;;19.27;41.17;101418.53;5046452;28;1231;-63
2021/01/10 07:50:21;;;;;;;;;;;;;;;20.08;39.52;101429.72;5027473;28;1294;-64
2021/01/10 07:52:50;;;;;;;;;;;;;;;20.87;37.53;101431.84;5021677;28;1647;-59
2021/01/10 07:55:18;;;;;;;;;;;;;;;20.33;38.78;101437.09;5057089;28;772;-59
2021/01/10 07:58:07;;;;;;;;;;;;;;;20.08;39.12;101438.03;5056317;28;1971;-59
2021/01/10 08:00:32;;;;;;;;;;;;;;;19.45;40.73;101437.28;5049031;28;1177;-61
2021/01/10 08:02:58;;;;;;;;;;;;;;;19.95;39.56;101445.78;5056981;28;780;-62
2021/01/10 08:05:23;;;;;;;;;;;;;;;20.70;38.10;101437.75;5056673;28;1130;-61
2021/01/10 08:07:56;;;;;;;;;;;;;;;20.48;38.35;101431.50;5043005;28;931;-60
2021/01/10 08:10:22;;;;;;;;;;;;;;;20.27;38.72;101435.44;5036074;28;744;-59
2021/01/10 08:12:47;;;;;;;;;;;;;;;19.62;40.09;101441.69;5036265;28;874;-59
2021/01/10 08:15:13;;;;;;;;;;;;;;;19.14;41.59;101436.47;5036824;28;824;-59
2021/01/10 08:17:39;;;;;;;;;;;;;;;20.21;39.06;101447.63;5047456;28;1977;-60
2021/01/10 08:20:05;;;;;;;;;;;;;;;20.81;37.96;101459.50;5056197;28;744;-62
2021/01/10 08:22:30;;;;;;;;;;;;;;;20.42;38.59;101460.22;5045503;28;1129;-59
2021/01/10 08:24:56;;;;;;;;;;;;;;;20.07;39.26;101453.72;5036626;28;764;-59
2021/01/10 08:27:21;;;;;;;;;;;;;;;19.44;40.59;101454.91;5036288;28;724;-60
2021/01/10 08:29:47;;;;;;;;;;;;;;;19.34;41.01;101452.16;5018729;28;1139;-60
2021/01/10 08:32:13;;;;;;;;;;;;;;;20.40;38.79;101451.41;5019073;28;804;-60
2021/01/10 08:34:45;;;;;;;;;;;;;;;21.02;37.65;101451.09;5036653;28;760;-60
2021/01/10 08:37:11;;;;;;;;;;;;;;;21.31;36.65;101448.38;5036388;28;1914;-59
2021/01/10 08:39:36;;;;;;;;;;;;;;;20.39;38.81;101446.19;5036292;28;815;-60
2021/01/10 08:42:02;;;;;;;;;;;;;;;20.20;39.10;101444.03;5036340;28;733;-60
2021/01/10 08:44:27;;;;;;;;;;;;;;;19.49;40.52;101445.84;5036553;28;734;-60
2021/01/10 08:46:54;;;;;;;;;;;;;;;19.28;41.29;101456.03;5036126;28;824;-60
2021/01/10 08:49:20;;;;;;;;;;;;;;;20.44;39.00;101462.72;5035870;28;827;-59
2021/01/10 08:51:48;;;;;;;;;;;;;;;20.44;38.78;101474.59;5035861;28;956;-60
2021/01/10 08:54:17;;;;;;;;;;;;;;;20.39;38.68;101477.38;5018943;28;860;-60
2021/01/10 08:56:43;;;;;;;;;;;;;;;19.63;40.36;101480.03;5036089;28;1980;-59
2021/01/10 08:59:09;;;;;;;;;;;;;;;19.20;41.41;101468.44;5036014;28;840;-60
2021/01/10 09:01:35;;;;;;;;;;;;;;;19.93;40.04;101458.19;5043860;28;869;-60
2021/01/10 09:04:03;;;;;;;;;;;;;;;20.78;37.94;101471.13;5056009;28;792;-60
2021/01/10 09:06:49;;;;;;;;;;;;;;;20.40;38.75;101462.47;5051543;28;1191;-60
2021/01/10 09:09:22;;;;;;;;;;;;;;;20.15;39.11;101457.88;5044606;28;1204;-62
2021/01/10 09:11:53;;;;;;;;;;;;;;;19.62;40.28;101458.22;5026329;28;1430;-58
2021/01/10 09:14:18;;;;;;;;;;;;;;;19.09;41.48;101445.53;5044292;28;1226;-61
2021/01/10 09:16:44;;;;;;;;;;;;;;;20.03;39.76;101438.84;5028353;28;1989;-60
2021/01/10 09:19:09;;;;;;;;;;;;;;;20.91;37.88;101436.50;5025616;28;1268;-62
2021/01/10 09:21:35;;;;;;;;;;;;;;;20.38;38.73;101431.53;5044191;28;1303;-64
2021/01/10 09:24:00;;;;;;;;;;;;;;;20.44;38.52;101435.94;5030899;28;1328;-60
2021/01/10 09:26:32;;;;;;;;;;;;;;;19.47;40.87;101426.81;5056055;28;1288;-59
2021/01/10 09:28:57;;;;;;;;;;;;;;;19.12;41.49;101430.38;5059680;28;815;-59
2021/01/10 09:31:56;;;;;;;;;;;;;;;19.87;40.21;101428.97;5060067;28;747;-59
2021/01/10 09:34:23;;;;;;;;;;;;;;;20.69;38.28;101436.91;5026501;28;1246;-59
2021/01/10 09:36:48;;;;;;;;;;;;;;;20.22;38.93;101432.72;5054058;28;1906;-60
2021/01/10 09:39:14;;;;;;;;;;;;;;;19.91;39.51;101427.28;5039669;28;756;-59
2021/01/10 09:41:52;;;;;;;;;;;;;;;19.41;40.66;101419.63;5039265;28;806;-59
2021/01/10 09:44:18;;;;;;;;;;;;;;;19.83;40.22;101420.41;5039949;28;827;-59
2021/01/10 09:46:49;;;;;;;;;;;;;;;20.76;38.22;101418.09;5039805;28;815;-60
2021/01/10 09:49:21;;;;;;;;;;;;;;;20.34;39.03;101422.16;5038964;28;741;-60
2021/01/10 09:51:47;;;;;;;;;;;;;;;20.17;39.33;101403.16;5039014;28;1007;-60
2021/01/10 09:54:12;;;;;;;;;;;;;;;19.44;40.64;101413.53;5039485;28;752;-60
2021/01/10 09:56:38;;;;;;;;;;;;;;;19.17;41.48;101413.00;5039028;28;1914;-59
2021/01/10 09:59:03;;;;;;;;;;;;;;;20.24;39.45;101419.44;5039561;28;744;-59
2021/01/10 10:01:36;;;;;;;;;;;;;;;20.61;38.49;101418.97;5039367;28;807;-60
2021/01/10 10:04:01;;;;;;;;;;;;;;;20.00;39.65;101418.13;5038735;28;827;-59
2021/01/10 10:06:27;;;;;;;;;;;;;;;19.87;40.00;101415.19;5038724;28;944;-58
2021/01/10 10:08:53;;;;;;;;;;;;;;;19.48;40.66;101406.38;5039103;28;748;-57
2021/01/10 10:11:18;;;;;;;;;;;;;;;19.54;40.66;101414.66;5038618;28;824;-57
2021/01/10 10:13:44;;;;;;;;;;;;;;;20.47;38.82;101413.25;5039171;28;835;-52
2021/01/10 10:16:15;;;;;;;;;;;;;;;20.42;38.66;101409.69;5038868;28;1918;-61
2021/01/10 10:18:40;;;;;;;;;;;;;;;20.26;38.89;101395.13;5058329;28;1150;-55
2021/01/10 10:21:06;;;;;;;;;;;;;;;19.97;39.60;101391.09;5041081;28;1359;-59
2021/01/10 10:23:31;;;;;;;;;;;;;;;19.17;41.48;101397.31;5039094;28;1181;-56
2021/01/10 10:25:57;;;;;;;;;;;;;;;20.08;39.72;101407.66;5038738;28;760;-55
2021/01/10 10:28:22;;;;;;;;;;;;;;;20.91;37.92;101410.81;5038912;28;1279;-59
2021/01/10 10:30:47;;;;;;;;;;;;;;;20.16;39.15;101410.63;5048088;28;1265;-59
2021/01/10 10:33:13;;;;;;;;;;;;;;;20.07;39.44;101406.00;5046353;28;1328;-60
2021/01/10 10:35:39;;;;;;;;;;;;;;;19.53;40.51;101410.22;5046530;28;1332;-60
2021/01/10 10:38:04;;;;;;;;;;;;;;;19.03;41.83;101416.31;5040344;28;1910;-60
2021/01/10 10:40:30;;;;;;;;;;;;;;;20.14;39.45;101421.13;5039400;28;1014;-58
2021/01/10 10:42:55;;;;;;;;;;;;;;;20.65;38.32;101427.50;5047457;28;1328;-59
2021/01/10 10:45:21;;;;;;;;;;;;;;;20.34;38.87;101430.44;5038616;28;807;-61
2021/01/10 10:47:49;;;;;;;;;;;;;;;19.92;39.88;101421.50;5038078;28;800;-59
2021/01/10 10:50:14;;;;;;;;;;;;;;;19.49;40.71;101432.84;5021448;28;776;-60
2021/01/10 10:52:43;;;;;;;;;;;;;;;19.49;40.78;101416.31;5037788;28;959;-59
2021/01/10 10:55:09;;;;;;;;;;;;;;;20.46;38.95;101422.63;5037988;28;771;-60
2021/01/10 10:57:35;;;;;;;;;;;;;;;20.52;38.53;101402.19;5038419;28;1911;-60
2021/01/10 11:00:03;;;;;;;;;;;;;;;20.25;39.22;101410.06;5038009;28;808;-60
2021/01/10 11:02:28;;;;;;;;;;;;;;;19.82;40.21;101413.22;5037809;28;732;-60
2021/01/10 11:04:53;;;;;;;;;;;;;;;19.12;41.65;101419.34;5038132;28;741;-59
2021/01/10 11:07:19;;;;;;;;;;;;;;;20.12;39.52;101415.06;5037404;28;940;-59
2021/01/10 11:09:47;;;;;;;;;;;;;;;20.88;38.00;101400.31;5037831;28;796;-59
2021/01/10 11:12:13;;;;;;;;;;;;;;;20.24;39.32;101411.97;5037958;28;800;-59
2021/01/10 11:14:39;;;;;;;;;;;;;;;20.16;39.19;101418.06;5037822;28;764;-59
2021/01/10 11:17:07;;;;;;;;;;;;;;;19.63;40.63;101422.09;5043700;28;1975;-59
2021/01/10 11:19:33;;;;;;;;;;;;;;;19.12;41.64;101417.41;5039736;28;855;-60
2021/01/10 11:21:59;;;;;;;;;;;;;;;20.17;39.24;101415.06;5050857;28;1013;-60
2021/01/10 11:24:25;;;;;;;;;;;;;;;20.68;38.33;101386.34;5037382;28;807;-60
2021/01/10 11:26:50;;;;;;;;;;;;;;;20.20;39.10;101376.94;5037565;28;796;-59
2021/01/10 11:29:17;;;;;;;;;;;;;;;20.17;39.03;101387.44;5037613;28;551;-59
2021/01/10 11:31:42;;;;;;;;;;;;;;;19.43;40.80;101391.75;5037573;28;776;-60
2021/01/10 11:34:08;;;;;;;;;;;;;;;19.09;41.93;101389.59;5037142;28;808;-60
2021/01/10 11:36:34;;;;;;;;;;;;;;;20.13;39.64;101386.38;5037010;28;1910;-59
2021/01/10 11:38:59;;;;;;;;;;;;;;;20.80;37.86;101391.53;5037316;28;878;-60
2021/01/10 11:41:25;;;;;;;;;;;;;;;20.21;39.11;101381.34;5037073;28;603;-59
2021/01/10 11:43:50;;;;;;;;;;;;;;;20.21;39.17;101362.03;5037365;28;752;-60
2021/01/10 11:46:16;;;;;;;;;;;;;;;19.58;40.54;101352.31;5037540;28;780;-60
2021/01/10 11:48:41;;;;;;;;;;;;;;;19.17;41.28;101357.88;5036765;28;780;-59
2021/01/10 11:51:07;;;;;;;;;;;;;;;19.96;39.96;101358.25;5037278;28;858;-59
2021/01/10 11:53:32;;;;;;;;;;;;;;;20.79;38.22;101355.88;5036699;28;963;-60
2021/01/10 11:55:58;;;;;;;;;;;;;;;20.35;38.73;101347.28;5036674;28;855;-59
2021/01/10 11:58:24;;;;;;;;;;;;;;;20.39;38.85;101344.78;5037041;28;776;-60
2021/01/10 12:00:50;;;;;;;;;;;;;;;19.60;40.44;101366.63;5037173;28;819;-60
2021/01/10 12:03:15;;;;;;;;;;;;;;;19.40;41.03;101376.59;5036679;28;792;-60
2021/01/10 12:05:41;;;;;;;;;;;;;;;19.87;40.00;101362.75;5037065;28;799;-60
2021/01/10 12:08:06;;;;;;;;;;;;;;;20.64;38.24;101351.28;5036461;28;986;-60
2021/01/10 12:10:32;;;;;;;;;;;;;;;20.37;38.82;101352.56;5036671;28;760;-60
2021/01/10 12:12:58;;;;;;;;;;;;;;;20.15;39.53;101356.53;5036947;28;879;-60
2021/01/10 12:15:23;;;;;;;;;;;;;;;19.49;40.58;101363.91;5036584;28;756;-60
2021/01/10 12:17:48;;;;;;;;;;;;;;;18.98;42.22;101366.69;5048596;28;1975;-60
2021/01/10 12:20:14;;;;;;;;;;;;;;;20.14;39.43;101365.91;5056717;28;771;-60
2021/01/10 12:22:39;;;;;;;;;;;;;;;20.63;38.24;101368.94;5043932;28;1079;-60
2021/01/10 12:25:05;;;;;;;;;;;;;;;20.22;39.16;101372.78;5036368;28;780;-60
2021/01/10 12:27:31;;;;;;;;;;;;;;;19.95;39.66;101362.13;5036489;28;756;-60
2021/01/10 12:29:56;;;;;;;;;;;;;;;19.36;41.15;101367.22;5036669;28;741;-59
2021/01/10 12:32:21;;;;;;;;;;;;;;;19.62;40.82;101373.53;5036276;28;825;-59
2021/01/10 12:34:47;;;;;;;;;;;;;;;20.47;38.78;101362.72;5036314;28;748;-58
2021/01/10 12:37:17;;;;;;;;;;;;;;;20.42;38.72;101340.63;5036108;28;1980;-59
2021/01/10 12:39:42;;;;;;;;;;;;;;;20.39;38.88;101328.22;5018468;28;880;-58
2021/01/10 12:42:07;;;;;;;;;;;;;;;19.85;40.04;101335.38;5036140;28;760;-59
2021/01/10 12:44:33;;;;;;;;;;;;;;;19.03;41.78;101327.28;5036614;28;812;-59
2021/01/10 12:46:58;;;;;;;;;;;;;;;20.13;39.63;101319.25;5036330;28;796;-59
2021/01/10 12:49:24;;;;;;;;;;;;;;;20.74;38.34;101331.88;5036091;28;796;-59
2021/01/10 12:51:50;;;;;;;;;;;;;;;20.31;39.26;101326.06;5035816;28;1010;-59